Allegan, Michigan
Current Conditions -  °F | °C
As of 5:53 PM on Tuesday 21 Oct 2014 (Local Time) from KBIV Reporting Station
Few Clouds Few Clouds  
Wind Chill: 51°   Ceiling: Unl
Heat Index: 51°   Visibility: 10mi
Dew Point: 37°   Wind: 5mph
Humidity: 59%   Direction: 10°N
Pressure: 30.18"   Gusts: NA
Location:  42.53°N, 85.86°W
Report Text: KBIV 212153Z AUTO 01004KT 10SM FEW036 11/03 A3018 RMK AO2 SLP222 T01060028
Loading
Personal Weather Stations






























Interactive Weather Map New forecast layout! Learn more

10-Day Weather Forecast

Advertisements
Track Severe Weather on mobile